createdAt,value
2017-06-22T00:00:51.600Z,0
2017-06-22T00:01:53.315Z,0
2017-06-22T00:02:55.105Z,0
2017-06-22T00:03:56.862Z,0
2017-06-22T00:04:58.649Z,0
2017-06-22T00:06:00.385Z,0
2017-06-22T00:07:02.187Z,0
2017-06-22T00:08:03.966Z,0
2017-06-22T00:09:05.797Z,0
2017-06-22T00:10:07.524Z,0
2017-06-22T00:11:09.336Z,0
2017-06-22T00:12:11.085Z,0
2017-06-22T00:13:12.924Z,0
2017-06-22T00:14:14.641Z,0
2017-06-22T00:15:17.488Z,0
2017-06-22T00:16:19.217Z,0
2017-06-22T00:17:20.967Z,0
2017-06-22T00:18:22.745Z,0
2017-06-22T00:19:24.691Z,0
2017-06-22T00:20:26.362Z,0
2017-06-22T00:21:28.191Z,0
2017-06-22T00:22:29.946Z,0
2017-06-22T00:23:31.712Z,0
2017-06-22T00:24:33.527Z,0
2017-06-22T00:25:35.405Z,0
2017-06-22T00:26:37.100Z,0
2017-06-22T00:27:39.973Z,0
2017-06-22T00:28:41.722Z,0
2017-06-22T00:29:43.472Z,0
2017-06-22T00:30:45.615Z,0
2017-06-22T00:31:47.495Z,0
2017-06-22T00:32:49.340Z,0
2017-06-22T00:33:51.126Z,0
2017-06-22T00:34:52.923Z,0
2017-06-22T00:35:54.729Z,0
2017-06-22T00:36:56.524Z,0
2017-06-22T00:37:58.306Z,0
2017-06-22T00:39:00.099Z,0
2017-06-22T00:40:01.942Z,0
2017-06-22T00:41:04.458Z,0
2017-06-22T00:42:06.355Z,0
2017-06-22T00:43:08.165Z,0
2017-06-22T00:44:09.998Z,0
2017-06-22T00:45:11.713Z,0
2017-06-22T00:46:13.513Z,0
2017-06-22T00:47:15.250Z,0
2017-06-22T00:48:17.129Z,0
2017-06-22T00:49:18.932Z,0
2017-06-22T00:50:21.656Z,0
2017-06-22T00:51:23.459Z,0
2017-06-22T00:52:25.374Z,0
2017-06-22T00:53:27.251Z,0
2017-06-22T00:54:29.033Z,0
2017-06-22T00:55:30.794Z,0
2017-06-22T00:56:32.629Z,0
2017-06-22T00:57:34.295Z,0
2017-06-22T00:58:36.140Z,0
2017-06-22T00:59:37.937Z,0
2017-06-22T01:00:39.754Z,0
2017-06-22T01:01:41.619Z,0
2017-06-22T01:02:43.449Z,0
2017-06-22T01:03:45.131Z,0
2017-06-22T01:04:47.925Z,0
2017-06-22T01:05:49.718Z,0
2017-06-22T01:06:51.468Z,0
2017-06-22T01:07:53.239Z,0
2017-06-22T01:08:56.079Z,0
2017-06-22T01:09:57.784Z,0
2017-06-22T01:10:59.585Z,0
2017-06-22T01:12:01.346Z,0
2017-06-22T01:13:04.146Z,0
2017-06-22T01:14:05.901Z,0
2017-06-22T01:15:07.674Z,0
2017-06-22T01:16:09.405Z,0
2017-06-22T01:17:11.288Z,0
2017-06-22T01:18:13.033Z,0
2017-06-22T01:19:14.828Z,0
2017-06-22T01:20:16.580Z,0
2017-06-22T01:21:18.384Z,0
2017-06-22T01:22:20.063Z,0
2017-06-22T01:23:22.185Z,0
2017-06-22T01:24:23.969Z,0
2017-06-22T01:25:26.792Z,0
2017-06-22T01:26:28.547Z,0
2017-06-22T01:27:30.367Z,0
2017-06-22T01:28:32.160Z,0
2017-06-22T01:29:33.907Z,0
2017-06-22T01:30:35.639Z,0
2017-06-22T01:31:38.525Z,0
2017-06-22T01:32:40.202Z,0
2017-06-22T01:33:42.019Z,0
2017-06-22T01:34:43.788Z,0
2017-06-22T01:35:45.520Z,0
2017-06-22T01:36:47.304Z,0
2017-06-22T01:37:50.120Z,0
2017-06-22T01:38:51.849Z,0
2017-06-22T01:39:53.721Z,0
2017-06-22T01:40:55.480Z,0
2017-06-22T01:41:57.226Z,0
2017-06-22T01:42:58.998Z,0
2017-06-22T01:44:00.827Z,0
2017-06-22T01:45:02.533Z,0
2017-06-22T01:46:04.373Z,0
2017-06-22T01:47:06.117Z,0
2017-06-22T01:48:08.847Z,0
2017-06-22T01:49:10.588Z,0
2017-06-22T01:50:14.479Z,0
2017-06-22T01:51:16.207Z,0
2017-06-22T01:52:18.076Z,0
2017-06-22T01:53:19.814Z,0
2017-06-22T01:54:21.575Z,0
2017-06-22T01:55:23.404Z,0
2017-06-22T01:56:25.272Z,0
2017-06-22T01:57:26.937Z,0
2017-06-22T01:58:29.738Z,0
2017-06-22T01:59:31.495Z,0
2017-06-22T02:00:33.679Z,0
2017-06-22T02:01:35.344Z,0
2017-06-22T02:02:37.143Z,0
2017-06-22T02:03:38.884Z,0
2017-06-22T02:04:40.677Z,0
2017-06-22T02:05:42.430Z,0
2017-06-22T02:06:45.293Z,0
2017-06-22T02:07:46.955Z,0
2017-06-22T02:08:50.801Z,0
2017-06-22T02:09:52.561Z,0
2017-06-22T02:10:54.322Z,0
2017-06-22T02:11:56.066Z,0
2017-06-22T02:12:57.905Z,0
2017-06-22T02:13:59.643Z,0
2017-06-22T02:15:01.511Z,0
2017-06-22T02:16:03.247Z,0
2017-06-22T02:17:05.027Z,0
2017-06-22T02:18:06.756Z,0
2017-06-22T02:19:08.736Z,0
2017-06-22T02:20:10.434Z,0
2017-06-22T02:21:13.226Z,4
2017-06-22T02:22:14.991Z,4
2017-06-22T02:23:17.160Z,4
2017-06-22T02:24:18.874Z,4
2017-06-22T02:25:20.713Z,4
2017-06-22T02:26:22.498Z,0
2017-06-22T02:27:24.353Z,4
2017-06-22T02:28:26.097Z,4
2017-06-22T02:29:27.907Z,4
2017-06-22T02:30:29.653Z,4
2017-06-22T02:31:31.514Z,8
2017-06-22T02:32:33.246Z,4
2017-06-22T02:33:37.075Z,8
2017-06-22T02:34:38.831Z,8
2017-06-22T02:35:40.654Z,8
2017-06-22T02:36:42.392Z,8
2017-06-22T02:37:44.322Z,8
2017-06-22T02:38:46.063Z,12
2017-06-22T02:39:47.852Z,12
2017-06-22T02:40:49.598Z,16
2017-06-22T02:41:51.424Z,16
2017-06-22T02:42:53.162Z,16
2017-06-22T02:43:54.901Z,20
2017-06-22T02:44:56.687Z,20
2017-06-22T02:45:58.536Z,24
2017-06-22T02:47:00.258Z,28
2017-06-22T02:48:02.013Z,32
2017-06-22T02:49:03.764Z,32
2017-06-22T02:50:05.596Z,36
2017-06-22T02:51:07.278Z,44
2017-06-22T02:52:09.146Z,44
2017-06-22T02:53:10.910Z,52
2017-06-22T02:54:12.737Z,56
2017-06-22T02:55:14.488Z,64
2017-06-22T02:56:17.316Z,64
2017-06-22T02:57:19.090Z,72
2017-06-22T02:58:20.985Z,76
2017-06-22T02:59:22.670Z,88
2017-06-22T03:00:24.412Z,96
2017-06-22T03:01:26.200Z,100
2017-06-22T03:02:27.944Z,116
2017-06-22T03:03:29.712Z,124
2017-06-22T03:04:31.534Z,132
2017-06-22T03:05:33.235Z,144
2017-06-22T03:06:35.099Z,156
2017-06-22T03:07:36.871Z,168
2017-06-22T03:08:38.685Z,180
2017-06-22T03:09:40.426Z,192
2017-06-22T03:10:42.248Z,204
2017-06-22T03:11:43.943Z,216
2017-06-22T03:12:46.759Z,232
2017-06-22T03:13:48.510Z,248
2017-06-22T03:14:50.290Z,260
2017-06-22T03:15:52.025Z,272
2017-06-22T03:16:53.848Z,296
2017-06-22T03:17:55.580Z,316
2017-06-22T03:18:58.361Z,340
2017-06-22T03:20:00.189Z,368
2017-06-22T03:21:01.859Z,396
2017-06-22T03:22:03.617Z,428
2017-06-22T03:23:06.475Z,456
2017-06-22T03:24:08.255Z,488
2017-06-22T03:25:10.070Z,516
2017-06-22T03:26:11.763Z,548
2017-06-22T03:27:13.602Z,580
2017-06-22T03:28:15.364Z,620
2017-06-22T03:29:17.232Z,656
2017-06-22T03:30:18.914Z,696
2017-06-22T03:31:20.811Z,740
2017-06-22T03:32:22.547Z,792
2017-06-22T03:33:24.278Z,840
2017-06-22T03:34:26.020Z,884
2017-06-22T03:35:28.912Z,924
2017-06-22T03:36:30.601Z,964
2017-06-22T03:37:32.337Z,1008
2017-06-22T03:38:34.197Z,1044
2017-06-22T03:39:35.942Z,1088
2017-06-22T03:40:37.680Z,1136
2017-06-22T03:41:39.479Z,1180
2017-06-22T03:42:41.220Z,1216
2017-06-22T03:43:43.052Z,1244
2017-06-22T03:44:44.807Z,1276
2017-06-22T03:45:46.607Z,1316
2017-06-22T03:46:48.672Z,1352
2017-06-22T03:47:50.559Z,1388
2017-06-22T03:48:52.380Z,1428
2017-06-22T03:49:54.117Z,1460
2017-06-22T03:50:55.847Z,1496
2017-06-22T03:51:57.649Z,1528
2017-06-22T03:52:59.394Z,1564
2017-06-22T03:54:01.255Z,1612
2017-06-22T03:55:03.010Z,1648
2017-06-22T03:56:04.758Z,1696
2017-06-22T03:57:06.678Z,1740
2017-06-22T03:58:08.443Z,1788
2017-06-22T03:59:10.116Z,1820
2017-06-22T04:00:12.897Z,1852
2017-06-22T04:01:14.673Z,1868
2017-06-22T04:02:16.473Z,1880
2017-06-22T04:03:18.237Z,1888
2017-06-22T04:04:20.044Z,1896
2017-06-22T04:05:21.729Z,1908
2017-06-22T04:06:23.518Z,1920
2017-06-22T04:07:25.327Z,1924
2017-06-22T04:08:27.100Z,1932
2017-06-22T04:09:28.861Z,1944
2017-06-22T04:10:30.614Z,1968
2017-06-22T04:11:32.407Z,1984
2017-06-22T04:12:34.191Z,1996
2017-06-22T04:13:35.981Z,2016
2017-06-22T04:14:37.736Z,2024
2017-06-22T04:15:39.500Z,2056
2017-06-22T04:16:41.314Z,2108
2017-06-22T04:17:43.078Z,2168
2017-06-22T04:18:44.962Z,2248
2017-06-22T04:19:46.705Z,2356
2017-06-22T04:20:48.476Z,2488
2017-06-22T04:21:50.248Z,2632
2017-06-22T04:22:52.100Z,2756
2017-06-22T04:23:53.801Z,2896
2017-06-22T04:24:55.573Z,3044
2017-06-22T04:25:57.354Z,3184
2017-06-22T04:26:59.104Z,3304
2017-06-22T04:28:00.844Z,3468
2017-06-22T04:29:02.659Z,3696
2017-06-22T04:30:04.406Z,3936
2017-06-22T04:31:06.192Z,4156
2017-06-22T04:32:07.961Z,4404
2017-06-22T04:33:09.778Z,4660
2017-06-22T04:34:11.526Z,4884
2017-06-22T04:35:13.373Z,5120
2017-06-22T04:36:15.048Z,5388
2017-06-22T04:37:16.807Z,5660
2017-06-22T04:38:18.568Z,5844
2017-06-22T04:39:20.308Z,5840
2017-06-22T04:40:22.204Z,5860
2017-06-22T04:41:23.966Z,5916
2017-06-22T04:42:25.723Z,5912
2017-06-22T04:43:27.601Z,5888
2017-06-22T04:44:29.417Z,5904
2017-06-22T04:45:31.121Z,5952
2017-06-22T04:46:33.531Z,6000
2017-06-22T04:47:35.281Z,5968
2017-06-22T04:48:37.021Z,6016
2017-06-22T04:49:38.799Z,6284
2017-06-22T04:50:40.536Z,6560
2017-06-22T04:51:42.369Z,7032
2017-06-22T04:52:44.132Z,7656
2017-06-22T04:53:45.862Z,7940
2017-06-22T04:54:47.610Z,7828
2017-06-22T04:55:49.284Z,11036
2017-06-22T04:56:51.049Z,10740
2017-06-22T04:57:52.820Z,11544
2017-06-22T04:58:54.632Z,13924
2017-06-22T04:59:56.432Z,13844
2017-06-22T05:00:58.195Z,13948
2017-06-22T05:01:59.909Z,13548
2017-06-22T05:03:01.599Z,14956
2017-06-22T05:04:03.320Z,12312
2017-06-22T05:05:05.110Z,11840
2017-06-22T05:06:07.205Z,12500
2017-06-22T05:07:08.912Z,11292
2017-06-22T05:08:10.621Z,9508
2017-06-22T05:09:12.353Z,9800
2017-06-22T05:10:14.247Z,10268
2017-06-22T05:11:16.100Z,9532
2017-06-22T05:12:17.930Z,10356
2017-06-22T05:13:19.719Z,9044
2017-06-22T05:14:21.538Z,8912
2017-06-22T05:15:23.328Z,8612
2017-06-22T05:16:25.119Z,8768
2017-06-22T05:17:26.914Z,9032
2017-06-22T05:18:28.702Z,9500
2017-06-22T05:19:30.455Z,10140
2017-06-22T05:20:32.198Z,10224
2017-06-22T05:21:33.982Z,9280
2017-06-22T05:22:35.652Z,8456
2017-06-22T05:23:37.309Z,8104
2017-06-22T05:24:39.054Z,7964
2017-06-22T05:25:40.818Z,7904
2017-06-22T05:26:42.562Z,7956
2017-06-22T05:27:44.395Z,8040
2017-06-22T05:28:46.165Z,8068
2017-06-22T05:29:47.956Z,7976
2017-06-22T05:30:49.729Z,7952
2017-06-22T05:31:51.595Z,8480
2017-06-22T05:32:53.322Z,8936
2017-06-22T05:33:55.086Z,8448
2017-06-22T05:34:56.837Z,8496
2017-06-22T05:35:58.584Z,8996
2017-06-22T05:37:00.335Z,8584
2017-06-22T05:38:02.066Z,8128
2017-06-22T05:39:03.794Z,8148
2017-06-22T05:40:05.480Z,8312
2017-06-22T05:41:07.217Z,8364
2017-06-22T05:42:08.934Z,8356
2017-06-22T05:43:10.609Z,8080
2017-06-22T05:44:12.350Z,7976
2017-06-22T05:45:14.157Z,7904
2017-06-22T05:46:15.921Z,7872
2017-06-22T05:47:17.785Z,7860
2017-06-22T05:48:19.529Z,7752
2017-06-22T05:49:21.371Z,7620
2017-06-22T05:50:23.129Z,7636
2017-06-22T05:51:24.948Z,7724
2017-06-22T05:52:26.778Z,7676
2017-06-22T05:53:28.488Z,7652
2017-06-22T05:54:30.225Z,7652
2017-06-22T05:55:32.077Z,7692
2017-06-22T05:56:34.139Z,7648
2017-06-22T05:57:36.051Z,7952
2017-06-22T05:58:37.874Z,8408
2017-06-22T05:59:39.664Z,8284
2017-06-22T06:00:41.330Z,7768
2017-06-22T06:01:43.121Z,7524
2017-06-22T06:02:44.882Z,7536
2017-06-22T06:03:47.150Z,7548
2017-06-22T06:04:48.820Z,7556
2017-06-22T06:05:50.627Z,7604
2017-06-22T06:06:52.367Z,7672
2017-06-22T06:07:54.127Z,7720
2017-06-22T06:08:55.875Z,7676
2017-06-22T06:09:57.715Z,7360
2017-06-22T06:10:59.414Z,7116
2017-06-22T06:12:01.242Z,7404
2017-06-22T06:13:02.934Z,7432
2017-06-22T06:14:04.786Z,7532
2017-06-22T06:15:06.531Z,7732
2017-06-22T06:16:08.320Z,7792
2017-06-22T06:17:10.041Z,7816
2017-06-22T06:18:11.925Z,7880
2017-06-22T06:19:13.656Z,7908
2017-06-22T06:20:15.426Z,7844
2017-06-22T06:21:17.209Z,7656
2017-06-22T06:22:18.997Z,7344
2017-06-22T06:23:20.731Z,7124
2017-06-22T06:24:22.494Z,7040
2017-06-22T06:25:24.241Z,6792
2017-06-22T06:26:26.106Z,6812
2017-06-22T06:27:27.888Z,7036
2017-06-22T06:28:29.690Z,7488
2017-06-22T06:29:31.432Z,7776
2017-06-22T06:30:33.280Z,7836
2017-06-22T06:31:35.024Z,7916
2017-06-22T06:32:36.765Z,7976
2017-06-22T06:33:38.504Z,8004
2017-06-22T06:34:40.270Z,8044
2017-06-22T06:35:42.021Z,8044
2017-06-22T06:36:43.887Z,8000
2017-06-22T06:37:45.638Z,7936
2017-06-22T06:38:48.425Z,7840
2017-06-22T06:39:50.176Z,7912
2017-06-22T06:40:51.983Z,8056
2017-06-22T06:41:53.754Z,8112
2017-06-22T06:42:55.494Z,8132
2017-06-22T06:43:57.274Z,8288
2017-06-22T06:44:59.089Z,8324
2017-06-22T06:46:00.820Z,8360
2017-06-22T06:47:02.673Z,8352
2017-06-22T06:48:04.360Z,8088
2017-06-22T06:49:06.041Z,7844
2017-06-22T06:50:07.710Z,7752
2017-06-22T06:51:09.433Z,7720
2017-06-22T06:52:11.199Z,7644
2017-06-22T06:53:12.929Z,7640
2017-06-22T06:54:14.747Z,7764
2017-06-22T06:55:16.569Z,7920
2017-06-22T06:56:18.304Z,7988
2017-06-22T06:57:20.044Z,8096
2017-06-22T06:58:21.787Z,8260
2017-06-22T06:59:23.541Z,8428
2017-06-22T07:00:25.301Z,8692
2017-06-22T07:01:26.985Z,8716
2017-06-22T07:02:28.764Z,8776
2017-06-22T07:03:30.532Z,8776
2017-06-22T07:04:32.254Z,8584
2017-06-22T07:05:34.014Z,8536
2017-06-22T07:06:35.854Z,8584
2017-06-22T07:07:37.577Z,8716
2017-06-22T07:08:39.322Z,8812
2017-06-22T07:09:41.059Z,8868
2017-06-22T07:10:42.803Z,8900
2017-06-22T07:11:44.543Z,8848
2017-06-22T07:12:46.216Z,8896
2017-06-22T07:13:47.949Z,8936
2017-06-22T07:14:49.712Z,9012
2017-06-22T07:15:51.500Z,9068
2017-06-22T07:16:53.236Z,9096
2017-06-22T07:17:55.025Z,9108
2017-06-22T07:18:56.773Z,9076
2017-06-22T07:19:58.641Z,9028
2017-06-22T07:21:00.387Z,9116
2017-06-22T07:22:02.136Z,9120
2017-06-22T07:23:03.957Z,9092
2017-06-22T07:24:05.673Z,9184
2017-06-22T07:25:07.458Z,9460
2017-06-22T07:26:09.213Z,9696
2017-06-22T07:27:10.991Z,10188
2017-06-22T07:28:12.685Z,10760
2017-06-22T07:29:14.467Z,10712
2017-06-22T07:30:16.167Z,10848
2017-06-22T07:31:17.915Z,10856
2017-06-22T07:32:19.705Z,10612
2017-06-22T07:33:21.447Z,10776
2017-06-22T07:34:23.190Z,10624
2017-06-22T07:35:24.940Z,10628
2017-06-22T07:36:26.691Z,10536
2017-06-22T07:37:28.433Z,10360
2017-06-22T07:38:30.212Z,10104
2017-06-22T07:39:31.944Z,10064
2017-06-22T07:40:33.708Z,10096
2017-06-22T07:41:35.516Z,10432
2017-06-22T07:42:37.274Z,10540
2017-06-22T07:43:39.046Z,10668
2017-06-22T07:44:40.836Z,10392
2017-06-22T07:45:42.642Z,9900
2017-06-22T07:46:44.459Z,9292
2017-06-22T07:47:46.216Z,8876
2017-06-22T07:48:47.952Z,8848
2017-06-22T07:49:49.712Z,8036
2017-06-22T07:50:51.399Z,7960
2017-06-22T07:51:53.278Z,7964
2017-06-22T07:52:55.049Z,8592
2017-06-22T07:53:56.759Z,8708
2017-06-22T07:54:58.713Z,8844
2017-06-22T07:56:00.897Z,8916
2017-06-22T07:57:02.668Z,9040
2017-06-22T07:58:04.511Z,9092
2017-06-22T07:59:06.238Z,8912
2017-06-22T08:00:08.015Z,8520
2017-06-22T08:01:09.756Z,9212
2017-06-22T08:02:11.526Z,9008
2017-06-22T08:03:13.310Z,8656
2017-06-22T08:04:15.017Z,8644
2017-06-22T08:05:16.893Z,8512
2017-06-22T08:06:18.678Z,7932
2017-06-22T08:07:20.495Z,7672
2017-06-22T08:08:22.241Z,8424
2017-06-22T08:09:24.002Z,8464
2017-06-22T08:10:25.784Z,8384
2017-06-22T08:11:27.524Z,8212
2017-06-22T08:12:29.414Z,8028
2017-06-22T08:13:31.196Z,7848
2017-06-22T08:14:32.968Z,7684
2017-06-22T08:15:34.751Z,7448
2017-06-22T08:16:36.616Z,7376
2017-06-22T08:17:38.298Z,7300
2017-06-22T08:18:40.266Z,7240
2017-06-22T08:19:42.012Z,7148
2017-06-22T08:20:43.855Z,7088
2017-06-22T08:21:45.678Z,6964
2017-06-22T08:22:47.462Z,6920
2017-06-22T08:23:49.635Z,7036
2017-06-22T08:24:51.447Z,6780
2017-06-22T08:25:53.318Z,6656
2017-06-22T08:26:55.205Z,6668
2017-06-22T08:27:57.054Z,6480
2017-06-22T08:28:59.203Z,6580
2017-06-22T08:30:01.013Z,6548
2017-06-22T08:31:02.793Z,6504
2017-06-22T08:32:04.588Z,6524
2017-06-22T08:33:06.333Z,6556
2017-06-22T08:34:08.090Z,6544
2017-06-22T08:35:09.781Z,6536
2017-06-22T08:36:11.672Z,6556
2017-06-22T08:37:13.390Z,6568
2017-06-22T08:38:15.162Z,6552
2017-06-22T08:39:16.945Z,6768
2017-06-22T08:40:18.797Z,6604
2017-06-22T08:41:20.848Z,6644
2017-06-22T08:42:23.025Z,6676
2017-06-22T08:43:24.886Z,6684
2017-06-22T08:44:26.701Z,6720
2017-06-22T08:45:28.473Z,6792
2017-06-22T08:46:30.215Z,6804
2017-06-22T08:47:32.983Z,6816
2017-06-22T08:48:34.683Z,6916
2017-06-22T08:49:36.479Z,6944
2017-06-22T08:50:38.296Z,6976
2017-06-22T08:51:39.987Z,7016
2017-06-22T08:52:41.731Z,7024
2017-06-22T08:53:43.576Z,6956
2017-06-22T08:54:45.325Z,7060
2017-06-22T08:55:47.225Z,7104
2017-06-22T08:56:49.077Z,7120
2017-06-22T08:57:50.744Z,7144
2017-06-22T08:58:52.500Z,7144
2017-06-22T08:59:54.318Z,7172
2017-06-22T09:00:55.999Z,7160
2017-06-22T09:01:57.831Z,7140
2017-06-22T09:02:59.594Z,7100
2017-06-22T09:04:01.335Z,7180
2017-06-22T09:05:03.018Z,7172
2017-06-22T09:06:04.759Z,7124
2017-06-22T09:07:06.558Z,7084
2017-06-22T09:08:08.329Z,7072
2017-06-22T09:09:10.008Z,7140
2017-06-22T09:10:11.691Z,7136
2017-06-22T09:11:13.446Z,7156
2017-06-22T09:12:15.202Z,7172
2017-06-22T09:13:17.464Z,7244
2017-06-22T09:14:19.197Z,7216
2017-06-22T09:15:20.869Z,7272
2017-06-22T09:16:22.626Z,7304
2017-06-22T09:17:24.777Z,7368
2017-06-22T09:18:26.865Z,7396
2017-06-22T09:19:28.858Z,7444
2017-06-22T09:20:30.644Z,7212
2017-06-22T09:21:32.337Z,7296
2017-06-22T09:22:33.987Z,7224
2017-06-22T09:23:35.716Z,7496
2017-06-22T09:24:37.591Z,7556
2017-06-22T09:25:39.355Z,7600
2017-06-22T09:26:42.979Z,7684
2017-06-22T09:27:44.641Z,7680
2017-06-22T09:28:46.456Z,7608
2017-06-22T09:29:48.153Z,7572
2017-06-22T09:30:49.898Z,7592
2017-06-22T09:31:51.764Z,7392
2017-06-22T09:32:53.473Z,7200
2017-06-22T09:33:55.332Z,7232
2017-06-22T09:34:56.999Z,7260
2017-06-22T09:35:58.751Z,7208
2017-06-22T09:37:00.654Z,7164
2017-06-22T09:38:02.458Z,7156
2017-06-22T09:39:04.227Z,7228
2017-06-22T09:40:05.948Z,7348
2017-06-22T09:41:07.727Z,7340
2017-06-22T09:42:09.421Z,7384
2017-06-22T09:43:11.182Z,7456
2017-06-22T09:44:12.908Z,7508
2017-06-22T09:45:14.855Z,7700
2017-06-22T09:46:16.531Z,8060
2017-06-22T09:47:18.226Z,8480
2017-06-22T09:48:19.971Z,8508
2017-06-22T09:49:21.737Z,9268
2017-06-22T09:50:23.450Z,9480
2017-06-22T09:51:25.201Z,9884
2017-06-22T09:52:27.034Z,9464
2017-06-22T09:53:28.756Z,10076
2017-06-22T09:54:30.511Z,10760
2017-06-22T09:55:32.263Z,10288
2017-06-22T09:56:34.221Z,11052
2017-06-22T09:57:36.002Z,10512
2017-06-22T09:58:37.775Z,9540
2017-06-22T09:59:39.489Z,9556
2017-06-22T10:00:41.217Z,9852
2017-06-22T10:01:42.985Z,8660
2017-06-22T10:02:45.000Z,8512
2017-06-22T10:03:46.766Z,7916
2017-06-22T10:04:48.661Z,7216
2017-06-22T10:05:50.426Z,7584
2017-06-22T10:06:54.437Z,7656
2017-06-22T10:07:56.216Z,7416
2017-06-22T10:08:57.953Z,7316
2017-06-22T10:10:00.099Z,7208
2017-06-22T10:11:06.616Z,7308
2017-06-22T10:12:08.408Z,7252
2017-06-22T10:13:12.265Z,7400
2017-06-22T10:14:13.979Z,7252
2017-06-22T10:15:15.980Z,7428
2017-06-22T10:16:17.741Z,7600
2017-06-22T10:17:20.696Z,7724
2017-06-22T10:18:22.359Z,7864
2017-06-22T10:19:24.189Z,7900
2017-06-22T10:20:25.984Z,8020
2017-06-22T10:21:27.786Z,8028
2017-06-22T10:22:29.513Z,7988
2017-06-22T10:23:32.320Z,7940
2017-06-22T10:24:34.076Z,7944
2017-06-22T10:25:35.863Z,8016
2017-06-22T10:26:37.585Z,8152
2017-06-22T10:27:40.414Z,8304
2017-06-22T10:28:42.157Z,8352
2017-06-22T10:29:49.042Z,8452
2017-06-22T10:30:50.781Z,8536
2017-06-22T10:31:52.539Z,8920
2017-06-22T10:32:54.548Z,8908
2017-06-22T10:33:56.241Z,9080
2017-06-22T10:34:58.594Z,9244
2017-06-22T10:36:00.348Z,9312
2017-06-22T10:37:02.221Z,9444
2017-06-22T10:38:03.881Z,9396
2017-06-22T10:39:07.762Z,9560
2017-06-22T10:40:09.478Z,9832
2017-06-22T10:41:11.337Z,10120
2017-06-22T10:42:14.135Z,10324
2017-06-22T10:43:18.336Z,10548
2017-06-22T10:44:20.285Z,10684
2017-06-22T10:45:22.103Z,10856
2017-06-22T10:46:24.128Z,11000
2017-06-22T10:47:30.618Z,11008
2017-06-22T10:48:34.545Z,10704
2017-06-22T10:49:38.337Z,10780
2017-06-22T10:50:40.056Z,10748
2017-06-22T10:51:43.362Z,10340
2017-06-22T10:52:45.131Z,10076
2017-06-22T10:53:47.959Z,9944
2017-06-22T10:54:49.823Z,9844
2017-06-22T10:55:52.214Z,9620
2017-06-22T10:56:54.021Z,9464
2017-06-22T10:57:56.429Z,9372
2017-06-22T10:58:58.054Z,9292
2017-06-22T10:59:59.876Z,9228
2017-06-22T11:01:01.587Z,9272
2017-06-22T11:02:04.335Z,9060
2017-06-22T11:03:06.095Z,9056
2017-06-22T11:04:13.599Z,9280
2017-06-22T11:05:15.803Z,9152
2017-06-22T11:06:18.601Z,9192
2017-06-22T11:07:20.346Z,9140
2017-06-22T11:08:22.109Z,8976
2017-06-22T11:09:23.877Z,8972
2017-06-22T11:10:27.253Z,9024
2017-06-22T11:11:28.982Z,9200
2017-06-22T11:12:32.849Z,9300
2017-06-22T11:13:34.910Z,9480
2017-06-22T11:14:36.659Z,9404
2017-06-22T11:15:38.421Z,9248
2017-06-22T11:16:41.347Z,9060
2017-06-22T11:17:43.012Z,9156
2017-06-22T11:18:44.932Z,9256
2017-06-22T11:19:46.682Z,9200
2017-06-22T11:20:49.465Z,9244
2017-06-22T11:21:51.206Z,9132
2017-06-22T11:22:53.105Z,9164
2017-06-22T11:23:55.027Z,9228
2017-06-22T11:24:57.961Z,9476
2017-06-22T11:25:59.803Z,9488
2017-06-22T11:27:01.574Z,9504
2017-06-22T11:28:04.182Z,9272
2017-06-22T11:29:08.025Z,9180
2017-06-22T11:30:09.829Z,9112
2017-06-22T11:31:11.593Z,8872
2017-06-22T11:32:13.359Z,8868
2017-06-22T11:33:17.260Z,8800
2017-06-22T11:34:18.939Z,8684
2017-06-22T11:35:20.914Z,8640
2017-06-22T11:36:22.790Z,8504
2017-06-22T11:37:24.648Z,8400
2017-06-22T11:38:26.330Z,8312
2017-06-22T11:39:28.191Z,8276
2017-06-22T11:40:30.267Z,8216
2017-06-22T11:41:33.035Z,7876
2017-06-22T11:42:34.879Z,7948
2017-06-22T11:43:41.678Z,8064
2017-06-22T11:44:43.456Z,8044
2017-06-22T11:45:47.336Z,7888
2017-06-22T11:46:49.200Z,8204
2017-06-22T11:47:53.203Z,8192
2017-06-22T11:48:54.940Z,8016
2017-06-22T11:49:56.806Z,7992
2017-06-22T11:50:58.580Z,7952
2017-06-22T11:52:01.406Z,8040
2017-06-22T11:53:03.214Z,8052
2017-06-22T11:54:04.986Z,7712
2017-06-22T11:55:06.835Z,7580
2017-06-22T11:56:10.616Z,7632
2017-06-22T11:57:12.328Z,7524
2017-06-22T11:58:15.203Z,7404
2017-06-22T11:59:17.099Z,7416
2017-06-22T12:00:18.955Z,7364
2017-06-22T12:01:21.116Z,7476
2017-06-22T12:02:29.740Z,7552
2017-06-22T12:03:31.523Z,7584
2017-06-22T12:04:33.358Z,7520
2017-06-22T12:05:36.250Z,7344
2017-06-22T12:06:38.184Z,7524
2017-06-22T12:07:44.737Z,7620
2017-06-22T12:08:46.475Z,7608
2017-06-22T12:09:49.429Z,7528
2017-06-22T12:10:51.338Z,7560
2017-06-22T12:11:53.155Z,7496
2017-06-22T12:12:54.898Z,7320
2017-06-22T12:14:07.877Z,7540
2017-06-22T12:15:09.679Z,7676
2017-06-22T12:16:12.424Z,7636
2017-06-22T12:17:14.186Z,7756
2017-06-22T12:18:16.996Z,7680
2017-06-22T12:19:18.747Z,7424
2017-06-22T12:20:20.605Z,7460
2017-06-22T12:21:22.467Z,7720
2017-06-22T12:22:35.072Z,7676
2017-06-22T12:23:36.826Z,7660
2017-06-22T12:24:45.217Z,7784
2017-06-22T12:25:47.010Z,7660
2017-06-22T12:26:53.636Z,7868
2017-06-22T12:27:55.405Z,7696
2017-06-22T12:28:57.209Z,7652
2017-06-22T12:29:58.927Z,7668
2017-06-22T12:31:13.748Z,7840
2017-06-22T12:32:15.594Z,6696
2017-06-22T12:33:17.331Z,7772
2017-06-22T12:34:19.156Z,7596
2017-06-22T12:35:23.007Z,7696
2017-06-22T12:36:24.744Z,7544
2017-06-22T12:37:26.679Z,7748
2017-06-22T12:38:28.471Z,7904
2017-06-22T12:39:32.689Z,8040
2017-06-22T12:40:34.497Z,8412
2017-06-22T12:41:47.216Z,8444
2017-06-22T12:42:49.035Z,8564
2017-06-22T12:43:51.769Z,8500
2017-06-22T12:44:53.608Z,8148
2017-06-22T12:45:55.491Z,8176
2017-06-22T12:46:57.239Z,8720
2017-06-22T12:48:01.308Z,9348
2017-06-22T12:49:03.122Z,9192
2017-06-22T12:50:04.881Z,8764
2017-06-22T12:51:06.697Z,8308
2017-06-22T12:52:10.595Z,7920
2017-06-22T12:53:12.344Z,8480
2017-06-22T12:54:14.181Z,8000
2017-06-22T12:55:15.881Z,7952
2017-06-22T12:56:24.271Z,7660
2017-06-22T12:57:25.923Z,7348
2017-06-22T12:58:29.720Z,7332
2017-06-22T12:59:31.461Z,7480
2017-06-22T13:00:33.239Z,7584
2017-06-22T13:01:35.127Z,7484
2017-06-22T13:02:37.960Z,7452
2017-06-22T13:03:39.643Z,7432
2017-06-22T13:04:42.498Z,7620
2017-06-22T13:05:44.375Z,7680
2017-06-22T13:06:46.595Z,7852
2017-06-22T13:07:48.110Z,7904
2017-06-22T13:08:49.886Z,6692
2017-06-22T13:09:51.677Z,7744
2017-06-22T13:10:53.441Z,7844
2017-06-22T13:11:55.292Z,7848
2017-06-22T13:12:57.042Z,7948
2017-06-22T13:13:58.772Z,7836
2017-06-22T13:15:00.509Z,7580
2017-06-22T13:16:02.482Z,7248
2017-06-22T13:17:04.202Z,7424
2017-06-22T13:18:06.004Z,7476
2017-06-22T13:19:07.761Z,7400
2017-06-22T13:20:09.699Z,7396
2017-06-22T13:21:11.473Z,7372
2017-06-22T13:22:13.340Z,7288
2017-06-22T13:23:15.160Z,7216
2017-06-22T13:24:16.961Z,7132
2017-06-22T13:25:18.725Z,7108
2017-06-22T13:26:20.613Z,7168
2017-06-22T13:27:22.305Z,7160
2017-06-22T13:28:24.180Z,7168
2017-06-22T13:29:25.923Z,7156
2017-06-22T13:30:27.782Z,7144
2017-06-22T13:31:29.561Z,7100
2017-06-22T13:32:31.359Z,7068
2017-06-22T13:33:33.085Z,7136
2017-06-22T13:34:34.944Z,6896
2017-06-22T13:35:36.722Z,6652
2017-06-22T13:36:38.601Z,6740
2017-06-22T13:37:40.281Z,6860
2017-06-22T13:38:42.103Z,6604
2017-06-22T13:39:43.902Z,6828
2017-06-22T13:40:45.691Z,6772
2017-06-22T13:41:48.166Z,6800
2017-06-22T13:42:49.986Z,6728
2017-06-22T13:43:51.755Z,6860
2017-06-22T13:44:53.573Z,6960
2017-06-22T13:45:55.326Z,5844
2017-06-22T13:46:57.103Z,6612
2017-06-22T13:47:58.906Z,7472
2017-06-22T13:49:00.583Z,7684
2017-06-22T13:50:02.331Z,7716
2017-06-22T13:51:04.084Z,6524
2017-06-22T13:52:05.883Z,7108
2017-06-22T13:53:07.649Z,8264
2017-06-22T13:54:09.382Z,6864
2017-06-22T13:55:11.135Z,8008
2017-06-22T13:56:12.869Z,8328
2017-06-22T13:57:14.583Z,8136
2017-06-22T13:58:16.265Z,8128
2017-06-22T13:59:18.290Z,8224
2017-06-22T14:00:20.083Z,6968
2017-06-22T14:01:21.835Z,7304
2017-06-22T14:02:23.613Z,8340